sensor_id;sensor_type;location;lat;lon;timestamp;P1;durP1;ratioP1;P2;durP2;ratioP2
65998;SDS011;52766;56.008;37.440;2024-01-30T00:00:22;9.57;;;3.78;;
65998;SDS011;52766;56.008;37.440;2024-01-30T00:02:48;10.18;;;4.95;;
65998;SDS011;52766;56.008;37.440;2024-01-30T00:05:14;10.95;;;4.05;;
65998;SDS011;52766;56.008;37.440;2024-01-30T00:07:40;11.18;;;5.38;;
65998;SDS011;52766;56.008;37.440;2024-01-30T00:10:06;9.45;;;3.28;;
65998;SDS011;52766;56.008;37.440;2024-01-30T00:12:31;7.93;;;4.25;;
65998;SDS011;52766;56.008;37.440;2024-01-30T00:14:57;10.55;;;4.60;;
65998;SDS011;52766;56.008;37.440;2024-01-30T00:17:23;8.10;;;3.88;;
65998;SDS011;52766;56.008;37.440;2024-01-30T00:19:50;7.55;;;3.08;;
65998;SDS011;52766;56.008;37.440;2024-01-30T00:22:16;9.13;;;3.35;;
65998;SDS011;52766;56.008;37.440;2024-01-30T00:24:42;7.18;;;3.55;;
65998;SDS011;52766;56.008;37.440;2024-01-30T00:27:09;13.10;;;4.35;;
65998;SDS011;52766;56.008;37.440;2024-01-30T00:29:35;10.52;;;4.10;;
65998;SDS011;52766;56.008;37.440;2024-01-30T00:32:01;9.55;;;4.32;;
65998;SDS011;52766;56.008;37.440;2024-01-30T00:34:27;10.23;;;4.85;;
65998;SDS011;52766;56.008;37.440;2024-01-30T00:36:54;9.25;;;4.30;;
65998;SDS011;52766;56.008;37.440;2024-01-30T00:39:20;7.43;;;2.78;;
65998;SDS011;52766;56.008;37.440;2024-01-30T00:41:46;10.13;;;4.60;;
65998;SDS011;52766;56.008;37.440;2024-01-30T00:44:12;9.45;;;3.63;;
65998;SDS011;52766;56.008;37.440;2024-01-30T00:46:38;10.80;;;4.50;;
65998;SDS011;52766;56.008;37.440;2024-01-30T00:49:04;8.52;;;3.97;;
65998;SDS011;52766;56.008;37.440;2024-01-30T00:51:30;14.18;;;5.10;;
65998;SDS011;52766;56.008;37.440;2024-01-30T00:53:56;9.00;;;3.83;;
65998;SDS011;52766;56.008;37.440;2024-01-30T00:56:23;8.93;;;4.10;;
65998;SDS011;52766;56.008;37.440;2024-01-30T00:58:49;10.43;;;4.60;;
65998;SDS011;52766;56.008;37.440;2024-01-30T01:01:15;11.27;;;4.03;;
65998;SDS011;52766;56.008;37.440;2024-01-30T01:03:42;11.07;;;4.90;;
65998;SDS011;52766;56.008;37.440;2024-01-30T01:06:09;10.02;;;4.85;;
65998;SDS011;52766;56.008;37.440;2024-01-30T01:08:35;11.18;;;5.20;;
65998;SDS011;52766;56.008;37.440;2024-01-30T01:11:01;10.13;;;4.82;;
65998;SDS011;52766;56.008;37.440;2024-01-30T01:13:29;10.73;;;5.15;;
65998;SDS011;52766;56.008;37.440;2024-01-30T01:15:54;10.05;;;5.05;;
65998;SDS011;52766;56.008;37.440;2024-01-30T01:18:23;6.90;;;3.13;;
65998;SDS011;52766;56.008;37.440;2024-01-30T01:20:49;8.35;;;4.18;;
65998;SDS011;52766;56.008;37.440;2024-01-30T01:23:14;12.43;;;4.80;;
65998;SDS011;52766;56.008;37.440;2024-01-30T01:25:40;12.23;;;4.85;;
65998;SDS011;52766;56.008;37.440;2024-01-30T01:28:06;9.48;;;4.13;;
65998;SDS011;52766;56.008;37.440;2024-01-30T01:30:32;9.35;;;5.07;;
65998;SDS011;52766;56.008;37.440;2024-01-30T01:32:58;13.25;;;5.18;;
65998;SDS011;52766;56.008;37.440;2024-01-30T01:35:26;8.15;;;4.40;;
65998;SDS011;52766;56.008;37.440;2024-01-30T01:37:53;6.05;;;2.83;;
65998;SDS011;52766;56.008;37.440;2024-01-30T01:40:25;8.38;;;4.68;;
65998;SDS011;52766;56.008;37.440;2024-01-30T01:42:52;8.38;;;4.47;;
65998;SDS011;52766;56.008;37.440;2024-01-30T01:45:19;13.02;;;5.53;;
65998;SDS011;52766;56.008;37.440;2024-01-30T01:47:45;11.20;;;4.50;;
65998;SDS011;52766;56.008;37.440;2024-01-30T01:50:13;8.98;;;4.22;;
65998;SDS011;52766;56.008;37.440;2024-01-30T01:52:48;8.02;;;3.00;;
65998;SDS011;52766;56.008;37.440;2024-01-30T01:55:15;8.48;;;3.95;;
65998;SDS011;52766;56.008;37.440;2024-01-30T01:57:41;6.57;;;3.38;;
65998;SDS011;52766;56.008;37.440;2024-01-30T02:00:08;5.97;;;2.90;;
65998;SDS011;52766;56.008;37.440;2024-01-30T02:02:36;8.35;;;4.15;;
65998;SDS011;52766;56.008;37.440;2024-01-30T02:05:02;8.98;;;4.65;;
65998;SDS011;52766;56.008;37.440;2024-01-30T02:07:40;11.93;;;4.20;;
65998;SDS011;52766;56.008;37.440;2024-01-30T02:10:10;9.43;;;5.13;;
65998;SDS011;52766;56.008;37.440;2024-01-30T02:12:36;8.23;;;3.80;;
65998;SDS011;52766;56.008;37.440;2024-01-30T02:15:02;7.38;;;4.15;;
65998;SDS011;52766;56.008;37.440;2024-01-30T02:17:35;7.57;;;3.40;;
65998;SDS011;52766;56.008;37.440;2024-01-30T02:20:01;8.13;;;4.43;;
65998;SDS011;52766;56.008;37.440;2024-01-30T02:22:29;7.93;;;3.58;;
65998;SDS011;52766;56.008;37.440;2024-01-30T02:24:56;9.07;;;4.10;;
65998;SDS011;52766;56.008;37.440;2024-01-30T02:27:21;11.48;;;5.55;;
65998;SDS011;52766;56.008;37.440;2024-01-30T02:29:47;7.68;;;3.50;;
65998;SDS011;52766;56.008;37.440;2024-01-30T02:32:13;9.27;;;4.78;;
65998;SDS011;52766;56.008;37.440;2024-01-30T02:34:39;12.23;;;5.32;;
65998;SDS011;52766;56.008;37.440;2024-01-30T02:37:04;8.43;;;4.00;;
65998;SDS011;52766;56.008;37.440;2024-01-30T02:39:33;6.93;;;3.53;;
65998;SDS011;52766;56.008;37.440;2024-01-30T02:42:01;10.55;;;3.67;;
65998;SDS011;52766;56.008;37.440;2024-01-30T02:44:31;9.27;;;4.40;;
65998;SDS011;52766;56.008;37.440;2024-01-30T02:46:57;8.13;;;3.97;;
65998;SDS011;52766;56.008;37.440;2024-01-30T02:49:25;8.63;;;3.10;;
65998;SDS011;52766;56.008;37.440;2024-01-30T02:51:52;7.72;;;3.42;;
65998;SDS011;52766;56.008;37.440;2024-01-30T02:54:19;9.32;;;4.38;;
65998;SDS011;52766;56.008;37.440;2024-01-30T02:56:47;9.23;;;4.75;;
65998;SDS011;52766;56.008;37.440;2024-01-30T02:59:13;7.47;;;3.13;;
65998;SDS011;52766;56.008;37.440;2024-01-30T03:01:45;8.45;;;4.13;;
65998;SDS011;52766;56.008;37.440;2024-01-30T03:04:12;11.38;;;5.40;;
65998;SDS011;52766;56.008;37.440;2024-01-30T03:06:38;8.52;;;3.63;;
65998;SDS011;52766;56.008;37.440;2024-01-30T03:09:05;7.97;;;3.35;;
65998;SDS011;52766;56.008;37.440;2024-01-30T03:11:31;6.18;;;3.83;;
65998;SDS011;52766;56.008;37.440;2024-01-30T03:13:56;6.43;;;2.80;;
65998;SDS011;52766;56.008;37.440;2024-01-30T03:16:22;7.45;;;3.08;;
65998;SDS011;52766;56.008;37.440;2024-01-30T03:18:48;8.98;;;4.07;;
65998;SDS011;52766;56.008;37.440;2024-01-30T03:21:14;6.75;;;3.83;;
65998;SDS011;52766;56.008;37.440;2024-01-30T03:23:39;9.02;;;4.80;;
65998;SDS011;52766;56.008;37.440;2024-01-30T03:26:05;11.10;;;3.95;;
65998;SDS011;52766;56.008;37.440;2024-01-30T03:28:34;10.32;;;4.65;;
65998;SDS011;52766;56.008;37.440;2024-01-30T03:31:00;10.70;;;4.60;;
65998;SDS011;52766;56.008;37.440;2024-01-30T03:33:28;6.93;;;4.03;;
65998;SDS011;52766;56.008;37.440;2024-01-30T03:35:54;7.70;;;4.13;;
65998;SDS011;52766;56.008;37.440;2024-01-30T03:38:20;9.38;;;4.10;;
65998;SDS011;52766;56.008;37.440;2024-01-30T03:40:49;7.05;;;3.92;;
65998;SDS011;52766;56.008;37.440;2024-01-30T03:43:15;10.07;;;5.82;;
65998;SDS011;52766;56.008;37.440;2024-01-30T03:45:41;9.48;;;4.38;;
65998;SDS011;52766;56.008;37.440;2024-01-30T03:48:08;9.20;;;4.95;;
65998;SDS011;52766;56.008;37.440;2024-01-30T03:50:34;8.57;;;4.60;;
65998;SDS011;52766;56.008;37.440;2024-01-30T03:53:02;9.18;;;4.00;;
65998;SDS011;52766;56.008;37.440;2024-01-30T03:55:31;10.77;;;5.35;;
65998;SDS011;52766;56.008;37.440;2024-01-30T03:57:57;8.05;;;5.40;;
65998;SDS011;52766;56.008;37.440;2024-01-30T04:00:26;8.15;;;4.60;;
65998;SDS011;52766;56.008;37.440;2024-01-30T04:02:53;8.88;;;3.78;;
65998;SDS011;52766;56.008;37.440;2024-01-30T04:05:22;11.98;;;5.45;;
65998;SDS011;52766;56.008;37.440;2024-01-30T04:07:48;8.43;;;4.65;;
65998;SDS011;52766;56.008;37.440;2024-01-30T04:13:11;8.88;;;4.55;;
65998;SDS011;52766;56.008;37.440;2024-01-30T04:15:49;11.55;;;5.15;;
65998;SDS011;52766;56.008;37.440;2024-01-30T04:18:18;7.90;;;3.70;;
65998;SDS011;52766;56.008;37.440;2024-01-30T04:20:47;9.35;;;5.13;;
65998;SDS011;52766;56.008;37.440;2024-01-30T04:23:13;10.07;;;5.22;;
65998;SDS011;52766;56.008;37.440;2024-01-30T04:25:44;8.60;;;3.55;;
65998;SDS011;52766;56.008;37.440;2024-01-30T04:35:46;10.55;;;5.05;;
65998;SDS011;52766;56.008;37.440;2024-01-30T04:38:12;9.23;;;4.50;;
65998;SDS011;52766;56.008;37.440;2024-01-30T04:40:40;11.00;;;4.80;;
65998;SDS011;52766;56.008;37.440;2024-01-30T04:43:07;10.30;;;5.50;;
65998;SDS011;52766;56.008;37.440;2024-01-30T04:45:33;8.65;;;4.25;;
65998;SDS011;52766;56.008;37.440;2024-01-30T04:48:02;12.48;;;6.95;;
65998;SDS011;52766;56.008;37.440;2024-01-30T04:50:28;10.18;;;5.15;;
65998;SDS011;52766;56.008;37.440;2024-01-30T04:52:55;12.82;;;5.03;;
65998;SDS011;52766;56.008;37.440;2024-01-30T04:55:30;7.20;;;4.05;;
65998;SDS011;52766;56.008;37.440;2024-01-30T04:58:05;8.30;;;4.32;;
65998;SDS011;52766;56.008;37.440;2024-01-30T05:00:31;10.68;;;4.15;;
65998;SDS011;52766;56.008;37.440;2024-01-30T05:02:57;8.95;;;4.35;;
65998;SDS011;52766;56.008;37.440;2024-01-30T05:05:26;9.20;;;4.78;;
65998;SDS011;52766;56.008;37.440;2024-01-30T05:07:55;7.97;;;3.35;;
65998;SDS011;52766;56.008;37.440;2024-01-30T05:10:22;12.45;;;6.95;;
65998;SDS011;52766;56.008;37.440;2024-01-30T05:12:51;8.85;;;4.90;;
65998;SDS011;52766;56.008;37.440;2024-01-30T05:15:21;9.20;;;4.82;;
65998;SDS011;52766;56.008;37.440;2024-01-30T05:17:47;8.77;;;5.15;;
65998;SDS011;52766;56.008;37.440;2024-01-30T05:20:16;13.77;;;5.60;;
65998;SDS011;52766;56.008;37.440;2024-01-30T05:22:43;10.20;;;4.45;;
65998;SDS011;52766;56.008;37.440;2024-01-30T05:25:14;10.00;;;5.18;;
65998;SDS011;52766;56.008;37.440;2024-01-30T05:27:50;8.38;;;4.60;;
65998;SDS011;52766;56.008;37.440;2024-01-30T05:30:16;10.52;;;5.07;;
65998;SDS011;52766;56.008;37.440;2024-01-30T05:35:39;9.25;;;4.53;;
65998;SDS011;52766;56.008;37.440;2024-01-30T05:38:08;12.55;;;5.15;;
65998;SDS011;52766;56.008;37.440;2024-01-30T05:40:34;10.00;;;5.40;;
65998;SDS011;52766;56.008;37.440;2024-01-30T05:43:03;13.30;;;5.43;;
65998;SDS011;52766;56.008;37.440;2024-01-30T05:45:30;9.90;;;4.43;;
65998;SDS011;52766;56.008;37.440;2024-01-30T05:48:05;10.02;;;4.85;;
65998;SDS011;52766;56.008;37.440;2024-01-30T05:50:31;9.55;;;4.75;;
65998;SDS011;52766;56.008;37.440;2024-01-30T05:52:57;9.15;;;3.92;;
65998;SDS011;52766;56.008;37.440;2024-01-30T05:55:23;8.27;;;4.35;;
65998;SDS011;52766;56.008;37.440;2024-01-30T05:57:52;10.05;;;4.80;;
65998;SDS011;52766;56.008;37.440;2024-01-30T06:00:19;9.05;;;5.10;;
65998;SDS011;52766;56.008;37.440;2024-01-30T06:02:49;9.95;;;4.50;;
65998;SDS011;52766;56.008;37.440;2024-01-30T06:05:26;8.98;;;4.55;;
65998;SDS011;52766;56.008;37.440;2024-01-30T06:07:58;13.07;;;5.60;;
65998;SDS011;52766;56.008;37.440;2024-01-30T06:10:24;7.53;;;4.22;;
65998;SDS011;52766;56.008;37.440;2024-01-30T06:12:54;11.68;;;5.72;;
65998;SDS011;52766;56.008;37.440;2024-01-30T06:15:24;12.27;;;5.10;;
65998;SDS011;52766;56.008;37.440;2024-01-30T06:17:50;9.73;;;4.38;;
65998;SDS011;52766;56.008;37.440;2024-01-30T06:20:19;13.32;;;6.05;;
65998;SDS011;52766;56.008;37.440;2024-01-30T06:22:45;10.60;;;6.05;;
65998;SDS011;52766;56.008;37.440;2024-01-30T06:25:15;12.20;;;6.68;;
65998;SDS011;52766;56.008;37.440;2024-01-30T06:27:56;10.40;;;5.63;;
65998;SDS011;52766;56.008;37.440;2024-01-30T06:30:24;12.52;;;5.13;;
65998;SDS011;52766;56.008;37.440;2024-01-30T06:32:55;8.73;;;3.78;;
65998;SDS011;52766;56.008;37.440;2024-01-30T06:35:24;12.45;;;6.45;;
65998;SDS011;52766;56.008;37.440;2024-01-30T06:37:55;15.82;;;5.80;;
65998;SDS011;52766;56.008;37.440;2024-01-30T06:40:35;10.98;;;5.32;;
65998;SDS011;52766;56.008;37.440;2024-01-30T06:43:04;15.82;;;5.57;;
65998;SDS011;52766;56.008;37.440;2024-01-30T06:46:03;11.30;;;5.45;;
65998;SDS011;52766;56.008;37.440;2024-01-30T06:48:36;10.07;;;4.60;;
65998;SDS011;52766;56.008;37.440;2024-01-30T06:51:12;16.63;;;5.50;;
65998;SDS011;52766;56.008;37.440;2024-01-30T06:53:53;9.40;;;4.47;;
65998;SDS011;52766;56.008;37.440;2024-01-30T06:56:25;8.98;;;4.47;;
65998;SDS011;52766;56.008;37.440;2024-01-30T06:58:58;14.98;;;5.68;;
65998;SDS011;52766;56.008;37.440;2024-01-30T07:01:28;9.55;;;3.95;;
65998;SDS011;52766;56.008;37.440;2024-01-30T07:03:57;10.77;;;5.47;;
65998;SDS011;52766;56.008;37.440;2024-01-30T07:06:50;10.02;;;4.68;;
65998;SDS011;52766;56.008;37.440;2024-01-30T07:09:16;9.30;;;4.28;;
65998;SDS011;52766;56.008;37.440;2024-01-30T07:11:45;9.15;;;5.20;;
65998;SDS011;52766;56.008;37.440;2024-01-30T07:14:12;11.50;;;5.20;;
65998;SDS011;52766;56.008;37.440;2024-01-30T07:16:39;16.13;;;7.25;;
65998;SDS011;52766;56.008;37.440;2024-01-30T07:19:06;14.85;;;4.88;;
65998;SDS011;52766;56.008;37.440;2024-01-30T07:21:45;10.90;;;5.53;;
65998;SDS011;52766;56.008;37.440;2024-01-30T07:24:13;12.68;;;6.95;;
65998;SDS011;52766;56.008;37.440;2024-01-30T07:26:44;11.95;;;5.70;;
65998;SDS011;52766;56.008;37.440;2024-01-30T07:29:15;13.00;;;5.53;;
65998;SDS011;52766;56.008;37.440;2024-01-30T07:31:43;11.95;;;6.10;;
65998;SDS011;52766;56.008;37.440;2024-01-30T07:34:14;12.52;;;6.10;;
65998;SDS011;52766;56.008;37.440;2024-01-30T07:36:44;11.55;;;6.65;;
65998;SDS011;52766;56.008;37.440;2024-01-30T07:39:15;15.88;;;7.30;;
65998;SDS011;52766;56.008;37.440;2024-01-30T07:45:56;10.65;;;5.88;;
65998;SDS011;52766;56.008;37.440;2024-01-30T07:48:28;11.45;;;5.80;;
65998;SDS011;52766;56.008;37.440;2024-01-30T07:51:10;9.43;;;5.50;;
65998;SDS011;52766;56.008;37.440;2024-01-30T07:53:40;14.02;;;5.38;;
65998;SDS011;52766;56.008;37.440;2024-01-30T07:56:07;14.68;;;6.82;;
65998;SDS011;52766;56.008;37.440;2024-01-30T07:58:37;10.50;;;4.70;;
65998;SDS011;52766;56.008;37.440;2024-01-30T08:01:10;13.20;;;5.78;;
65998;SDS011;52766;56.008;37.440;2024-01-30T08:03:39;14.13;;;4.85;;
65998;SDS011;52766;56.008;37.440;2024-01-30T08:06:10;11.35;;;4.93;;
65998;SDS011;52766;56.008;37.440;2024-01-30T08:08:46;13.02;;;6.40;;
65998;SDS011;52766;56.008;37.440;2024-01-30T08:11:24;13.00;;;5.10;;
65998;SDS011;52766;56.008;37.440;2024-01-30T08:13:57;13.23;;;6.55;;
65998;SDS011;52766;56.008;37.440;2024-01-30T08:16:28;12.65;;;5.88;;
65998;SDS011;52766;56.008;37.440;2024-01-30T08:18:58;12.90;;;5.85;;
65998;SDS011;52766;56.008;37.440;2024-01-30T08:21:30;9.52;;;5.22;;
65998;SDS011;52766;56.008;37.440;2024-01-30T08:24:31;13.25;;;4.72;;
65998;SDS011;52766;56.008;37.440;2024-01-30T08:27:03;9.70;;;5.28;;
65998;SDS011;52766;56.008;37.440;2024-01-30T08:29:39;11.57;;;5.18;;
65998;SDS011;52766;56.008;37.440;2024-01-30T08:32:12;13.80;;;6.32;;
65998;SDS011;52766;56.008;37.440;2024-01-30T08:34:54;13.45;;;5.65;;
65998;SDS011;52766;56.008;37.440;2024-01-30T08:37:34;11.55;;;5.65;;
65998;SDS011;52766;56.008;37.440;2024-01-30T08:40:14;13.43;;;5.03;;
65998;SDS011;52766;56.008;37.440;2024-01-30T08:42:54;10.85;;;4.75;;
65998;SDS011;52766;56.008;37.440;2024-01-30T08:45:31;12.13;;;5.10;;
65998;SDS011;52766;56.008;37.440;2024-01-30T08:48:12;10.73;;;4.97;;
65998;SDS011;52766;56.008;37.440;2024-01-30T08:50:55;11.23;;;5.85;;
65998;SDS011;52766;56.008;37.440;2024-01-30T08:53:36;13.18;;;6.53;;
65998;SDS011;52766;56.008;37.440;2024-01-30T08:56:12;12.48;;;4.47;;
65998;SDS011;52766;56.008;37.440;2024-01-30T08:59:20;14.57;;;6.63;;
65998;SDS011;52766;56.008;37.440;2024-01-30T09:01:50;13.13;;;5.82;;
65998;SDS011;52766;56.008;37.440;2024-01-30T09:04:22;15.35;;;6.30;;
65998;SDS011;52766;56.008;37.440;2024-01-30T09:09:43;13.52;;;7.13;;
65998;SDS011;52766;56.008;37.440;2024-01-30T09:12:14;12.45;;;7.43;;
65998;SDS011;52766;56.008;37.440;2024-01-30T09:14:47;17.90;;;7.07;;
65998;SDS011;52766;56.008;37.440;2024-01-30T09:17:21;15.50;;;8.20;;
65998;SDS011;52766;56.008;37.440;2024-01-30T09:19:48;14.25;;;7.97;;
65998;SDS011;52766;56.008;37.440;2024-01-30T09:22:14;13.40;;;6.47;;
65998;SDS011;52766;56.008;37.440;2024-01-30T09:24:41;16.15;;;7.20;;
65998;SDS011;52766;56.008;37.440;2024-01-30T09:27:09;11.27;;;5.70;;
65998;SDS011;52766;56.008;37.440;2024-01-30T09:29:37;11.32;;;6.50;;
65998;SDS011;52766;56.008;37.440;2024-01-30T09:32:05;16.42;;;7.35;;
65998;SDS011;52766;56.008;37.440;2024-01-30T09:34:32;19.55;;;8.38;;
65998;SDS011;52766;56.008;37.440;2024-01-30T09:36:59;12.25;;;6.50;;
65998;SDS011;52766;56.008;37.440;2024-01-30T09:39:26;14.35;;;6.72;;
65998;SDS011;52766;56.008;37.440;2024-01-30T09:44:45;14.23;;;6.95;;
65998;SDS011;52766;56.008;37.440;2024-01-30T09:47:12;16.55;;;7.38;;
65998;SDS011;52766;56.008;37.440;2024-01-30T09:49:44;12.85;;;6.20;;
65998;SDS011;52766;56.008;37.440;2024-01-30T09:52:10;13.18;;;6.00;;
65998;SDS011;52766;56.008;37.440;2024-01-30T09:54:41;15.85;;;9.70;;
65998;SDS011;52766;56.008;37.440;2024-01-30T09:57:07;12.93;;;5.55;;
65998;SDS011;52766;56.008;37.440;2024-01-30T09:59:34;14.50;;;8.10;;
65998;SDS011;52766;56.008;37.440;2024-01-30T10:02:26;16.45;;;6.45;;
65998;SDS011;52766;56.008;37.440;2024-01-30T10:04:56;16.88;;;8.07;;
65998;SDS011;52766;56.008;37.440;2024-01-30T10:07:25;13.82;;;7.28;;
65998;SDS011;52766;56.008;37.440;2024-01-30T10:12:23;15.20;;;6.72;;
65998;SDS011;52766;56.008;37.440;2024-01-30T10:14:52;13.23;;;6.93;;
65998;SDS011;52766;56.008;37.440;2024-01-30T10:17:20;14.70;;;6.60;;
65998;SDS011;52766;56.008;37.440;2024-01-30T10:19:48;12.15;;;5.78;;
65998;SDS011;52766;56.008;37.440;2024-01-30T10:22:43;12.38;;;6.57;;
65998;SDS011;52766;56.008;37.440;2024-01-30T10:25:14;14.00;;;5.72;;
65998;SDS011;52766;56.008;37.440;2024-01-30T10:27:43;16.50;;;9.00;;
65998;SDS011;52766;56.008;37.440;2024-01-30T10:30:19;14.02;;;4.95;;
65998;SDS011;52766;56.008;37.440;2024-01-30T10:32:48;16.70;;;8.02;;
65998;SDS011;52766;56.008;37.440;2024-01-30T10:35:17;10.43;;;4.30;;
65998;SDS011;52766;56.008;37.440;2024-01-30T10:37:54;7.90;;;4.07;;
65998;SDS011;52766;56.008;37.440;2024-01-30T10:40:49;12.80;;;5.85;;
65998;SDS011;52766;56.008;37.440;2024-01-30T10:43:18;17.02;;;7.00;;
65998;SDS011;52766;56.008;37.440;2024-01-30T10:45:46;14.05;;;5.82;;
65998;SDS011;52766;56.008;37.440;2024-01-30T10:48:29;16.25;;;6.93;;
65998;SDS011;52766;56.008;37.440;2024-01-30T10:50:58;11.20;;;5.88;;
65998;SDS011;52766;56.008;37.440;2024-01-30T10:53:26;11.90;;;5.80;;
65998;SDS011;52766;56.008;37.440;2024-01-30T10:58:53;15.38;;;5.72;;
65998;SDS011;52766;56.008;37.440;2024-01-30T11:24:01;10.77;;;5.65;;
65998;SDS011;52766;56.008;37.440;2024-01-30T12:12:22;11.88;;;5.50;;
65998;SDS011;52766;56.008;37.440;2024-01-30T12:45:04;9.05;;;4.13;;
65998;SDS011;52766;56.008;37.440;2024-01-30T12:52:25;15.35;;;5.93;;
65998;SDS011;52766;56.008;37.440;2024-01-30T12:59:49;15.73;;;5.63;;
65998;SDS011;52766;56.008;37.440;2024-01-30T13:37:44;11.68;;;5.93;;
65998;SDS011;52766;56.008;37.440;2024-01-30T14:01:36;10.50;;;5.15;;
65998;SDS011;52766;56.008;37.440;2024-01-30T14:19:35;8.40;;;4.10;;
65998;SDS011;52766;56.008;37.440;2024-01-30T15:13:25;15.50;;;6.95;;
65998;SDS011;52766;56.008;37.440;2024-01-30T15:19:30;17.42;;;7.03;;
65998;SDS011;52766;56.008;37.440;2024-01-30T15:40:19;20.33;;;8.40;;
65998;SDS011;52766;56.008;37.440;2024-01-30T15:43:03;20.63;;;8.75;;
65998;SDS011;52766;56.008;37.440;2024-01-30T15:56:42;11.18;;;5.78;;
65998;SDS011;52766;56.008;37.440;2024-01-30T16:05:05;17.02;;;6.05;;
65998;SDS011;52766;56.008;37.440;2024-01-30T16:10:54;13.98;;;4.55;;
65998;SDS011;52766;56.008;37.440;2024-01-30T16:14:12;11.00;;;5.32;;
65998;SDS011;52766;56.008;37.440;2024-01-30T16:21:18;19.45;;;6.68;;
65998;SDS011;52766;56.008;37.440;2024-01-30T16:24:26;14.05;;;5.97;;
65998;SDS011;52766;56.008;37.440;2024-01-30T16:27:02;15.65;;;6.88;;
65998;SDS011;52766;56.008;37.440;2024-01-30T16:29:57;18.08;;;7.85;;
65998;SDS011;52766;56.008;37.440;2024-01-30T16:33:22;16.15;;;6.10;;
65998;SDS011;52766;56.008;37.440;2024-01-30T16:36:32;20.02;;;7.15;;
65998;SDS011;52766;56.008;37.440;2024-01-30T16:42:23;16.33;;;6.63;;
65998;SDS011;52766;56.008;37.440;2024-01-30T16:49:46;20.50;;;7.40;;
65998;SDS011;52766;56.008;37.440;2024-01-30T17:06:21;19.85;;;8.25;;
65998;SDS011;52766;56.008;37.440;2024-01-30T18:04:54;17.10;;;6.45;;
65998;SDS011;52766;56.008;37.440;2024-01-30T18:11:23;17.25;;;6.15;;
65998;SDS011;52766;56.008;37.440;2024-01-30T18:18:39;31.73;;;11.32;;
65998;SDS011;52766;56.008;37.440;2024-01-30T18:25:44;21.75;;;8.93;;
65998;SDS011;52766;56.008;37.440;2024-01-30T18:32:36;21.83;;;7.32;;
65998;SDS011;52766;56.008;37.440;2024-01-30T18:35:21;26.02;;;9.43;;
65998;SDS011;52766;56.008;37.440;2024-01-30T18:37:54;17.77;;;6.35;;
65998;SDS011;52766;56.008;37.440;2024-01-30T18:40:59;18.67;;;8.30;;
65998;SDS011;52766;56.008;37.440;2024-01-30T18:43:40;13.60;;;6.57;;
65998;SDS011;52766;56.008;37.440;2024-01-30T18:46:24;13.65;;;6.22;;
65998;SDS011;52766;56.008;37.440;2024-01-30T18:48:59;16.77;;;7.97;;
65998;SDS011;52766;56.008;37.440;2024-01-30T19:00:16;20.77;;;7.85;;
65998;SDS011;52766;56.008;37.440;2024-01-30T19:02:51;18.17;;;7.20;;
65998;SDS011;52766;56.008;37.440;2024-01-30T19:05:23;21.88;;;8.73;;
65998;SDS011;52766;56.008;37.440;2024-01-30T19:08:18;19.58;;;7.03;;
65998;SDS011;52766;56.008;37.440;2024-01-30T19:10:47;18.42;;;7.47;;
65998;SDS011;52766;56.008;37.440;2024-01-30T19:13:48;21.48;;;7.70;;
65998;SDS011;52766;56.008;37.440;2024-01-30T19:16:46;13.57;;;5.93;;
65998;SDS011;52766;56.008;37.440;2024-01-30T19:19:26;21.10;;;8.25;;
65998;SDS011;52766;56.008;37.440;2024-01-30T19:21:57;23.40;;;8.60;;
65998;SDS011;52766;56.008;37.440;2024-01-30T19:29:02;24.10;;;9.57;;
65998;SDS011;52766;56.008;37.440;2024-01-30T19:45:14;29.17;;;10.38;;
65998;SDS011;52766;56.008;37.440;2024-01-30T19:47:48;23.80;;;9.68;;
65998;SDS011;52766;56.008;37.440;2024-01-30T19:54:56;14.73;;;5.95;;
65998;SDS011;52766;56.008;37.440;2024-01-30T19:57:57;16.88;;;7.13;;
65998;SDS011;52766;56.008;37.440;2024-01-30T20:03:53;13.75;;;5.53;;
65998;SDS011;52766;56.008;37.440;2024-01-30T20:06:27;31.23;;;10.73;;
65998;SDS011;52766;56.008;37.440;2024-01-30T20:09:00;19.90;;;7.70;;
65998;SDS011;52766;56.008;37.440;2024-01-30T20:11:33;17.80;;;7.70;;
65998;SDS011;52766;56.008;37.440;2024-01-30T20:19:46;15.88;;;5.95;;
65998;SDS011;52766;56.008;37.440;2024-01-30T20:28:10;19.45;;;7.00;;
65998;SDS011;52766;56.008;37.440;2024-01-30T20:38:53;29.60;;;10.73;;
65998;SDS011;52766;56.008;37.440;2024-01-30T20:41:52;14.75;;;6.22;;
65998;SDS011;52766;56.008;37.440;2024-01-30T20:45:10;22.45;;;10.88;;
65998;SDS011;52766;56.008;37.440;2024-01-30T20:54:29;21.52;;;8.95;;
65998;SDS011;52766;56.008;37.440;2024-01-30T20:57:01;20.23;;;8.80;;
65998;SDS011;52766;56.008;37.440;2024-01-30T21:00:31;22.05;;;8.93;;
65998;SDS011;52766;56.008;37.440;2024-01-30T21:03:27;12.93;;;6.88;;
65998;SDS011;52766;56.008;37.440;2024-01-30T21:06:16;24.77;;;9.60;;
65998;SDS011;52766;56.008;37.440;2024-01-30T21:08:54;32.55;;;12.00;;
65998;SDS011;52766;56.008;37.440;2024-01-30T21:11:33;25.23;;;10.07;;
65998;SDS011;52766;56.008;37.440;2024-01-30T21:14:03;25.45;;;10.50;;
65998;SDS011;52766;56.008;37.440;2024-01-30T21:16:32;25.10;;;9.88;;
65998;SDS011;52766;56.008;37.440;2024-01-30T21:18:59;18.58;;;6.68;;
65998;SDS011;52766;56.008;37.440;2024-01-30T21:21:30;26.73;;;10.23;;
65998;SDS011;52766;56.008;37.440;2024-01-30T21:24:01;29.73;;;11.40;;
65998;SDS011;52766;56.008;37.440;2024-01-30T21:26:31;26.60;;;10.30;;
65998;SDS011;52766;56.008;37.440;2024-01-30T21:28:58;18.85;;;8.45;;
65998;SDS011;52766;56.008;37.440;2024-01-30T21:31:32;46.63;;;13.75;;
65998;SDS011;52766;56.008;37.440;2024-01-30T21:34:03;27.40;;;11.13;;
65998;SDS011;52766;56.008;37.440;2024-01-30T21:36:30;29.20;;;11.48;;
65998;SDS011;52766;56.008;37.440;2024-01-30T21:38:56;23.48;;;10.43;;
65998;SDS011;52766;56.008;37.440;2024-01-30T21:41:22;22.88;;;8.95;;
65998;SDS011;52766;56.008;37.440;2024-01-30T21:43:48;26.75;;;10.20;;
65998;SDS011;52766;56.008;37.440;2024-01-30T21:46:24;26.40;;;11.77;;
65998;SDS011;52766;56.008;37.440;2024-01-30T21:48:55;34.00;;;13.25;;
65998;SDS011;52766;56.008;37.440;2024-01-30T21:51:22;30.55;;;12.05;;
65998;SDS011;52766;56.008;37.440;2024-01-30T21:53:49;34.70;;;12.38;;
65998;SDS011;52766;56.008;37.440;2024-01-30T21:56:15;33.90;;;11.65;;
65998;SDS011;52766;56.008;37.440;2024-01-30T21:59:03;36.22;;;13.95;;
65998;SDS011;52766;56.008;37.440;2024-01-30T22:01:30;32.53;;;12.57;;
65998;SDS011;52766;56.008;37.440;2024-01-30T22:03:56;36.75;;;12.15;;
65998;SDS011;52766;56.008;37.440;2024-01-30T22:06:25;30.98;;;12.55;;
65998;SDS011;52766;56.008;37.440;2024-01-30T22:08:54;26.83;;;11.68;;
65998;SDS011;52766;56.008;37.440;2024-01-30T22:11:26;26.45;;;11.32;;
65998;SDS011;52766;56.008;37.440;2024-01-30T22:13:52;31.33;;;13.60;;
65998;SDS011;52766;56.008;37.440;2024-01-30T22:16:18;26.67;;;10.65;;
65998;SDS011;52766;56.008;37.440;2024-01-30T22:19:05;38.13;;;14.80;;
65998;SDS011;52766;56.008;37.440;2024-01-30T22:30:42;23.70;;;9.55;;
65998;SDS011;52766;56.008;37.440;2024-01-30T22:33:43;35.20;;;13.88;;
65998;SDS011;52766;56.008;37.440;2024-01-30T22:36:16;35.13;;;14.55;;
65998;SDS011;52766;56.008;37.440;2024-01-30T22:38:48;39.72;;;14.85;;
65998;SDS011;52766;56.008;37.440;2024-01-30T22:41:20;30.58;;;13.13;;
65998;SDS011;52766;56.008;37.440;2024-01-30T22:43:46;33.55;;;13.10;;